• Join FlightAware (Why Join?)
  • Login
  • US Flag 
11:56PM EST


 

Airport Tracker/Info


-or-


 

Live Flight TrackerFlight Track Log ✈ UAL4625 ✈ 25-Apr-2013 ✈ KCHS - KEWR

Flight Track Log - Related Links

Times and Time Zones

All times are in EDT time to prevent confusion due to time zone crossing. See the UAL4625 flight status page for this flight to view local times or setup timezone preferences in your user account.

Time Position Orientation Groundspeed Altitude Reporting Facility
EDT Latitude Longitude Course Direction KTS MPH feet Rate Location/Type
12:37PM 33.1620 -79.9500 North  Level FlightAware Approximate
12:37PM 32.9489 -79.9642 13° North 276 318 6,800  Level Jacksonville Center
12:38PM 33.2560 -79.9255 North  Level FlightAware Approximate
12:38PM 33.0258 -79.9567 North 276 318 9,300  Level Jacksonville Center
12:39PM 33.3478 -79.8928 23° Northeast  Level FlightAware Approximate
12:39PM 33.1069 -79.9392 10° North 276 318 11,800  Level Jacksonville Center
12:40PM 33.4416 -79.8683 North  Level FlightAware Approximate
12:40PM 33.1922 -79.9289 North 286 329 13,300  Level Jacksonville Center
12:41PM 33.5356 -79.8423 13° North  Level FlightAware Approximate
12:41PM 33.2900 -79.9133 North 315 362 14,700  Level Jacksonville Center
12:42PM 33.6294 -79.8155 13° North  Level FlightAware Approximate
12:42PM 33.3917 -79.8947 North 344 396 16,200  Level Jacksonville Center
12:43PM 33.4933 -79.8592 16° North 363 418 17,900 1,800 Climbing Jacksonville Center
12:44PM 33.5942 -79.8083 23° Northeast 374 430 19,900 1,920 Climbing Jacksonville Center
12:45PM 33.6828 -79.7578 25° Northeast 388 447 21,800 1,440 Climbing Jacksonville Center
12:46PM 33.7836 -79.7017 25° Northeast 393 452 22,900 1,020 Climbing Jacksonville Center
12:47PM 33.8958 -79.6875 North 393 452 23,900 1,200 Climbing Jacksonville Center
12:48PM 34.0083 -79.6808 North 393 452 25,400 1,500 Climbing Jacksonville Center
12:49PM 34.1167 -79.6719 North 388 447 26,900 1,680 Climbing Jacksonville Center
12:50PM 34.2228 -79.6656 North 383 441 28,800 1,740 Climbing Jacksonville Center
12:52PM 34.4283 -79.6506 North 357 411 32,200 1,500 Climbing Washington Center
12:53PM 34.5267 -79.6456 North 352 405 33,400 1,200 Climbing Washington Center
12:54PM 34.6250 -79.6378 North 352 405 34,600 780 Climbing Washington Center
12:55PM 34.7233 -79.6325 North 347 399 35,000 180 Climbing Washington Center
12:56PM 34.8300 -79.6225 North 357 411 35,000  Level Washington Center
12:57PM 34.9408 -79.6181 North 379 436 35,000  Level Washington Center
12:58PM 35.0600 -79.6086 North 406 467 35,000  Level Washington Center
12:59PM 35.1817 -79.5867 North 421 484 35,000  Level Washington Center
01:00PM 35.2969 -79.5086 29° Northeast 440 506 35,000  Level Washington Center
01:01PM 35.4103 -79.4250 31° Northeast 457 526 35,000  Level Washington Center
01:02PM 35.5278 -79.3386 31° Northeast 478 550 35,000  Level Washington Center
01:03PM 35.6431 -79.2519 31° Northeast 483 556 35,000  Level Washington Center
01:04PM 35.7561 -79.1703 30° Northeast 478 550 35,000  Level Washington Center
01:05PM 35.8692 -79.0881 31° Northeast 478 550 35,000  Level Washington Center
01:06PM 35.9758 -79.0083 31° Northeast 466 536 35,000  Level Washington Center
01:07PM 36.0886 -78.9283 30° Northeast 466 536 35,000  Level Washington Center
01:08PM 36.2017 -78.8431 31° Northeast 460 529 35,000  Level Washington Center
01:09PM 36.2911 -78.7772 31° Northeast 460 529 35,000  Level Washington Center
01:10PM 36.4125 -78.6839 32° Northeast 460 529 35,000  Level Washington Center
01:11PM 36.5253 -78.6006 31° Northeast 460 529 35,000  Level Washington Center
01:13PM 36.7464 -78.4303 32° Northeast 460 529 35,000  Level Washington Center
01:14PM 36.8589 -78.3436 32° Northeast 466 536 35,000  Level Washington Center
01:15PM 36.9714 -78.2592 31° Northeast 466 536 35,000  Level Washington Center
01:16PM 37.0944 -78.1644 32° Northeast 466 536 35,000  Level Washington Center
01:17PM 37.1919 -78.0869 32° Northeast 461 531 35,000  Level Washington Center
01:18PM 37.3086 -77.9994 31° Northeast 466 536 35,000  Level Washington Center
01:19PM 37.4250 -77.9114 31° Northeast 471 542 35,000  Level Washington Center
01:20PM 37.5414 -77.8181 32° Northeast 482 555 35,000  Level Washington Center
01:21PM 37.6581 -77.7139 35° Northeast 494 568 35,000  Level Washington Center
01:22PM 37.7706 -77.6067 37° Northeast 500 575 35,000  Level Washington Center
01:23PM 37.8847 -77.5044 35° Northeast 506 582 35,000 -300 Level Washington Center
01:24PM 37.9992 -77.3994 36° Northeast 506 582 34,500 -1,380 Descending Washington Center
01:25PM 38.1131 -77.2967 35° Northeast 506 582 32,300 -2,160 Descending Washington Center
01:26PM 38.2272 -77.1936 35° Northeast 506 582 30,200 -2,100 Descending Washington Center
01:27PM 38.3369 -77.0900 37° Northeast 506 582 28,100 -1,620 Descending Washington Center
01:28PM 38.4467 -76.9886 36° Northeast 491 565 27,000 -600 Descending Washington Center
01:29PM 38.5542 -76.8900 36° Northeast 480 552 27,000  Level Washington Center
01:30PM 38.6594 -76.7853 38° Northeast 480 552 27,000  Level Washington Center
01:31PM 38.7647 -76.6753 39° Northeast 480 552 27,000  Level Washington Center
01:32PM 38.8678 -76.5569 42° Northeast 487 560 27,000  Level Washington Center
01:33PM 38.9708 -76.4381 42° Northeast 492 566 27,000  Level Washington Center
01:34PM 39.0717 -76.3189 43° Northeast 492 566 27,000  Level Washington Center
01:35PM 39.1744 -76.1967 43° Northeast 492 566 27,000  Level Washington Center
01:36PM 39.2833 -76.0794 40° Northeast 497 572 27,000 -480 Level Washington Center
01:37PM 39.3839 -75.9594 43° Northeast 491 565 26,100 -1,260 Descending Washington Center
01:38PM 39.4861 -75.8389 42° Northeast 491 565 24,500 -1,800 Descending Washington Center
01:39PM 39.5864 -75.7208 42° Northeast 491 565 22,500 -1,500 Descending Washington Center
01:40PM 39.6761 -75.6131 43° Northeast 466 536 21,500 -1,080 Descending Washington Center
01:41PM 39.7656 -75.5050 43° Northeast 445 512 20,400 -1,620 Descending Washington Center
01:42PM 39.8508 -75.4050 42° Northeast 423 487 18,300 -2,040 Descending Washington Center
01:43PM 39.9319 -75.3047 43° Northeast 412 474 16,400 -1,680 Descending Washington Center
01:44PM 40.0108 -75.2069 43° Northeast 395 455 15,000 -1,260 Descending Washington Center
01:45PM 40.0856 -75.1169 43° Northeast 383 441 13,900 -1,140 Descending Washington Center
01:46PM 40.1558 -75.0269 44° Northeast 364 419 12,800 -1,020 Descending Washington Center
01:47PM 40.2222 -74.9475 42° Northeast 340 391 11,900 -600 Descending Washington Center
01:48PM 40.2758 -74.8656 49° Northeast 315 362 11,600 -660 Descending Washington Center
01:49PM 40.2278 -74.8169 142° Southeast 195 224 10,600 -900 Descending Washington Center
01:50PM 40.1822 -74.8664 220° Southwest 88 101 9,900 -300 Descending Washington Center
01:51PM 40.1386 -74.9186 222° Southwest 134 154 10,000  Climbing Washington Center
01:52PM 40.1267 -74.9836 257° West 178 205 10,000 -60 Level Washington Center
01:53PM 40.1786 -74.9994 347° North 126 145 9,900 -60 Descending Washington Center
01:54PM 40.2306 -74.9394 41° Northeast 136 157 9,900  Level Washington Center
01:55PM 40.2717 -74.8736 51° Northeast 189 217 9,900  Level Washington Center
01:56PM 40.2217 -74.8417 154° Southeast 118 136 9,900  Level Washington Center
01:57PM 40.1803 -74.8936 224° Southwest 105 121 9,900  Level Washington Center
01:58PM 40.1367 -74.9483 224° Southwest 176 203 10,000  Climbing Washington Center
01:59PM 40.1475 -75.0106 283° West 181 208 10,000 -60 Level Washington Center
02:00PM 40.2014 -74.9722 29° Northeast 96 110 9,900 -60 Descending Washington Center
02:01PM 40.2533 -74.9092 43° Northeast 174 200 9,900  Level Washington Center
02:02PM 40.2547 -74.8358 89° East 178 205 9,900  Level Washington Center
02:03PM 40.2031 -74.8664 204° Southwest 88 101 9,900  Level Washington Center
02:04PM 40.1575 -74.9211 223° Southwest 150 173 10,000  Climbing Washington Center
02:05PM 40.1328 -74.9808 242° Southwest 179 206 10,000 -60 Level Washington Center
02:06PM 40.1828 -74.9967 346° North 114 131 9,900 -60 Descending Washington Center
02:07PM 40.2306 -74.9367 44° Northeast 124 143 9,900  Level Washington Center
02:08PM 40.2717 -74.8683 52° Northeast 179 206 9,900 -300 Level Washington Center
02:09PM 40.2217 -74.8417 158° South 143 165 9,300 -540 Descending Washington Center
02:10PM 40.1803 -74.8936 224° Southwest 96 110 8,900 -300 Descending Washington Center
02:11PM 40.1408 -74.9428 224° Southwest 164 189 8,700 -480 Descending Washington Center
02:11PM 40.1333 -74.9833 256° West 206 237 8,300 -600 Descending New York TRACON
02:12PM 40.2000 -74.9833 360° North 268 308 7,900 -420 Descending New York TRACON